sensor_id;sensor_type;location;lat;lon;timestamp;pressure;altitude;pressure_sealevel;temperature
50206;BMP280;36098;48.390;10.856;2024-02-26T00:02:04;94303.47;;;18.96
50206;BMP280;36098;48.390;10.856;2024-02-26T00:04:29;94300.06;;;18.96
50206;BMP280;36098;48.390;10.856;2024-02-26T00:06:54;94302.69;;;18.96
50206;BMP280;36098;48.390;10.856;2024-02-26T00:09:21;94296.69;;;18.95
50206;BMP280;36098;48.390;10.856;2024-02-26T00:11:46;94307.41;;;18.94
50206;BMP280;36098;48.390;10.856;2024-02-26T00:14:11;94298.50;;;18.95
50206;BMP280;36098;48.390;10.856;2024-02-26T00:16:40;94290.94;;;18.93
50206;BMP280;36098;48.390;10.856;2024-02-26T00:19:05;94286.75;;;18.92
50206;BMP280;36098;48.390;10.856;2024-02-26T00:21:31;94279.22;;;18.91
50206;BMP280;36098;48.390;10.856;2024-02-26T00:23:56;94280.78;;;18.92
50206;BMP280;36098;48.390;10.856;2024-02-26T00:26:21;94288.13;;;18.90
50206;BMP280;36098;48.390;10.856;2024-02-26T00:28:47;94290.75;;;18.90
50206;BMP280;36098;48.390;10.856;2024-02-26T00:31:12;94291.81;;;18.89
50206;BMP280;36098;48.390;10.856;2024-02-26T00:33:37;94285.78;;;18.88
50206;BMP280;36098;48.390;10.856;2024-02-26T00:36:03;94291.81;;;18.89
50206;BMP280;36098;48.390;10.856;2024-02-26T00:38:29;94286.09;;;18.87
50206;BMP280;36098;48.390;10.856;2024-02-26T00:40:54;94280.06;;;18.86
50206;BMP280;36098;48.390;10.856;2024-02-26T00:43:19;94280.06;;;18.86
50206;BMP280;36098;48.390;10.856;2024-02-26T00:45:45;94287.91;;;18.86
50206;BMP280;36098;48.390;10.856;2024-02-26T00:48:12;94284.81;;;18.84
50206;BMP280;36098;48.390;10.856;2024-02-26T00:50:39;94279.56;;;18.84
50206;BMP280;36098;48.390;10.856;2024-02-26T00:53:04;94289.25;;;18.84
50206;BMP280;36098;48.390;10.856;2024-02-26T00:55:29;94286.13;;;18.82
50206;BMP280;36098;48.390;10.856;2024-02-26T00:57:54;94288.75;;;18.82
50206;BMP280;36098;48.390;10.856;2024-02-26T01:00:20;94282.75;;;18.81
50206;BMP280;36098;48.390;10.856;2024-02-26T01:02:46;94275.69;;;18.82
50206;BMP280;36098;48.390;10.856;2024-02-26T01:05:14;94267.06;;;18.81
50206;BMP280;36098;48.390;10.856;2024-02-26T01:07:41;94271.50;;;18.81
50206;BMP280;36098;48.390;10.856;2024-02-26T01:10:07;94269.47;;;18.78
50206;BMP280;36098;48.390;10.856;2024-02-26T01:12:33;94273.63;;;18.79
50206;BMP280;36098;48.390;10.856;2024-02-26T01:14:59;94270.25;;;18.78
50206;BMP280;36098;48.390;10.856;2024-02-26T01:17:24;94262.69;;;18.77
50206;BMP280;36098;48.390;10.856;2024-02-26T01:19:50;94263.75;;;18.76
50206;BMP280;36098;48.390;10.856;2024-02-26T01:22:15;94272.38;;;18.76
50206;BMP280;36098;48.390;10.856;2024-02-26T01:24:46;94275.28;;;18.75
50206;BMP280;36098;48.390;10.856;2024-02-26T01:27:11;94276.31;;;18.74
50206;BMP280;36098;48.390;10.856;2024-02-26T01:29:37;94276.31;;;18.74
50206;BMP280;36098;48.390;10.856;2024-02-26T01:32:03;94278.44;;;18.72
50206;BMP280;36098;48.390;10.856;2024-02-26T01:34:30;94281.81;;;18.72
50206;BMP280;36098;48.390;10.856;2024-02-26T01:36:55;94275.03;;;18.71
50206;BMP280;36098;48.390;10.856;2024-02-26T01:39:21;94275.84;;;18.72
50206;BMP280;36098;48.390;10.856;2024-02-26T01:41:47;94264.59;;;18.71
50206;BMP280;36098;48.390;10.856;2024-02-26T01:44:12;94262.75;;;18.72
50206;BMP280;36098;48.390;10.856;2024-02-26T01:46:41;94261.22;;;18.71
50206;BMP280;36098;48.390;10.856;2024-02-26T01:49:08;94265.94;;;18.69
50206;BMP280;36098;48.390;10.856;2024-02-26T01:51:38;94258.38;;;18.67
50206;BMP280;36098;48.390;10.856;2024-02-26T01:54:04;94251.59;;;18.66
50206;BMP280;36098;48.390;10.856;2024-02-26T01:56:29;94249.00;;;18.66
50206;BMP280;36098;48.390;10.856;2024-02-26T01:58:57;94249.78;;;18.67
50206;BMP280;36098;48.390;10.856;2024-02-26T02:01:25;94259.72;;;18.65
50206;BMP280;36098;48.390;10.856;2024-02-26T02:03:51;94254.47;;;18.65
50206;BMP280;36098;48.390;10.856;2024-02-26T02:06:16;94250.31;;;18.64
50206;BMP280;36098;48.390;10.856;2024-02-26T02:08:42;94244.34;;;18.63
50206;BMP280;36098;48.390;10.856;2024-02-26T02:11:07;94247.69;;;18.64
50206;BMP280;36098;48.390;10.856;2024-02-26T02:13:33;94242.78;;;18.62
50206;BMP280;36098;48.390;10.856;2024-02-26T02:15:59;94246.16;;;18.63
50206;BMP280;36098;48.390;10.856;2024-02-26T02:18:24;94244.09;;;18.60
50206;BMP280;36098;48.390;10.856;2024-02-26T02:20:49;94250.88;;;18.61
50206;BMP280;36098;48.390;10.856;2024-02-26T02:23:15;94247.50;;;18.60
50206;BMP280;36098;48.390;10.856;2024-02-26T02:25:40;94250.41;;;18.59
50206;BMP280;36098;48.390;10.856;2024-02-26T02:28:05;94251.94;;;18.60
50206;BMP280;36098;48.390;10.856;2024-02-26T02:30:31;94251.19;;;18.59
50206;BMP280;36098;48.390;10.856;2024-02-26T02:32:58;94246.22;;;18.58
50206;BMP280;36098;48.390;10.856;2024-02-26T02:35:24;94246.22;;;18.58
50206;BMP280;36098;48.390;10.856;2024-02-26T02:37:51;94240.25;;;18.57
50206;BMP280;36098;48.390;10.856;2024-02-26T02:40:17;94236.84;;;18.57
50206;BMP280;36098;48.390;10.856;2024-02-26T02:42:42;94239.72;;;18.55
50206;BMP280;36098;48.390;10.856;2024-02-26T02:45:08;94237.09;;;18.55
50206;BMP280;36098;48.390;10.856;2024-02-26T02:47:36;94228.50;;;18.55
50206;BMP280;36098;48.390;10.856;2024-02-26T02:50:02;94230.31;;;18.54
50206;BMP280;36098;48.390;10.856;2024-02-26T02:52:27;94222.28;;;18.51
50206;BMP280;36098;48.390;10.856;2024-02-26T02:54:52;94229.06;;;18.52
50206;BMP280;36098;48.390;10.856;2024-02-26T02:57:18;94234.31;;;18.52
50206;BMP280;36098;48.390;10.856;2024-02-26T02:59:43;94236.63;;;18.53
50206;BMP280;36098;48.390;10.856;2024-02-26T03:02:08;94237.19;;;18.50
50206;BMP280;36098;48.390;10.856;2024-02-26T03:04:33;94237.97;;;18.51
50206;BMP280;36098;48.390;10.856;2024-02-26T03:06:59;94231.19;;;18.50
50206;BMP280;36098;48.390;10.856;2024-02-26T03:09:25;94232.75;;;18.51
50206;BMP280;36098;48.390;10.856;2024-02-26T03:11:50;94240.84;;;18.49
50206;BMP280;36098;48.390;10.856;2024-02-26T03:14:15;94244.53;;;18.48
50206;BMP280;36098;48.390;10.856;2024-02-26T03:16:41;94239.31;;;18.48
50206;BMP280;36098;48.390;10.856;2024-02-26T03:19:06;94237.75;;;18.47
50206;BMP280;36098;48.390;10.856;2024-02-26T03:21:32;94237.00;;;18.47
50206;BMP280;36098;48.390;10.856;2024-02-26T03:23:57;94242.22;;;18.47
50206;BMP280;36098;48.390;10.856;2024-02-26T03:26:22;94239.09;;;18.45
50206;BMP280;36098;48.390;10.856;2024-02-26T03:28:48;94234.66;;;18.45
50206;BMP280;36098;48.390;10.856;2024-02-26T03:31:13;94231.53;;;18.43
50206;BMP280;36098;48.390;10.856;2024-02-26T03:33:39;94242.75;;;18.44
50206;BMP280;36098;48.390;10.856;2024-02-26T03:36:04;94237.53;;;18.44
50206;BMP280;36098;48.390;10.856;2024-02-26T03:38:30;94232.31;;;18.44
50206;BMP280;36098;48.390;10.856;2024-02-26T03:40:55;94237.84;;;18.42
50206;BMP280;36098;48.390;10.856;2024-02-26T03:43:21;94239.66;;;18.42
50206;BMP280;36098;48.390;10.856;2024-02-26T03:45:46;94245.66;;;18.42
50206;BMP280;36098;48.390;10.856;2024-02-26T03:48:11;94245.19;;;18.40
50206;BMP280;36098;48.390;10.856;2024-02-26T03:50:37;94239.16;;;18.40
50206;BMP280;36098;48.390;10.856;2024-02-26T03:53:02;94236.06;;;18.38
50206;BMP280;36098;48.390;10.856;2024-02-26T03:55:27;94236.06;;;18.38
50206;BMP280;36098;48.390;10.856;2024-02-26T03:57:52;94237.13;;;18.37
50206;BMP280;36098;48.390;10.856;2024-02-26T04:00:18;94234.50;;;18.37
50206;BMP280;36098;48.390;10.856;2024-02-26T04:02:44;94232.94;;;18.36
50206;BMP280;36098;48.390;10.856;2024-02-26T04:05:10;94236.34;;;18.36
50206;BMP280;36098;48.390;10.856;2024-02-26T04:07:35;94239.25;;;18.35
50206;BMP280;36098;48.390;10.856;2024-02-26T04:10:01;94235.84;;;18.34
50206;BMP280;36098;48.390;10.856;2024-02-26T04:12:29;94240.31;;;18.34
50206;BMP280;36098;48.390;10.856;2024-02-26T04:14:55;94229.84;;;18.34
50206;BMP280;36098;48.390;10.856;2024-02-26T04:17:20;94240.56;;;18.32
50206;BMP280;36098;48.390;10.856;2024-02-26T04:19:45;94244.72;;;18.33
50206;BMP280;36098;48.390;10.856;2024-02-26T04:22:11;94240.88;;;18.31
50206;BMP280;36098;48.390;10.856;2024-02-26T04:24:36;94239.81;;;18.32
50206;BMP280;36098;48.390;10.856;2024-02-26T04:27:02;94243.47;;;18.31
50206;BMP280;36098;48.390;10.856;2024-02-26T04:29:27;94247.16;;;18.30
50206;BMP280;36098;48.390;10.856;2024-02-26T04:31:52;94250.81;;;18.29
50206;BMP280;36098;48.390;10.856;2024-02-26T04:34:17;94248.22;;;18.29
50206;BMP280;36098;48.390;10.856;2024-02-26T04:36:43;94261.28;;;18.29
50206;BMP280;36098;48.390;10.856;2024-02-26T04:39:09;94264.94;;;18.28
50206;BMP280;36098;48.390;10.856;2024-02-26T04:41:35;94275.41;;;18.28
50206;BMP280;36098;48.390;10.856;2024-02-26T04:44:00;94269.63;;;18.26
50206;BMP280;36098;48.390;10.856;2024-02-26T04:46:26;94275.63;;;18.26
50206;BMP280;36098;48.390;10.856;2024-02-26T04:48:53;94274.06;;;18.25
50206;BMP280;36098;48.390;10.856;2024-02-26T04:51:18;94270.69;;;18.25
50206;BMP280;36098;48.390;10.856;2024-02-26T04:53:43;94263.91;;;18.24
50206;BMP280;36098;48.390;10.856;2024-02-26T04:56:09;94269.13;;;18.24
50206;BMP280;36098;48.390;10.856;2024-02-26T04:58:34;94273.59;;;18.23
50206;BMP280;36098;48.390;10.856;2024-02-26T05:00:59;94273.84;;;18.22
50206;BMP280;36098;48.390;10.856;2024-02-26T05:03:24;94269.13;;;18.24
50206;BMP280;36098;48.390;10.856;2024-02-26T05:05:50;94274.84;;;18.26
50206;BMP280;36098;48.390;10.856;2024-02-26T05:08:15;94279.56;;;18.24
50206;BMP280;36098;48.390;10.856;2024-02-26T05:10:40;94283.25;;;18.23
50206;BMP280;36098;48.390;10.856;2024-02-26T05:13:09;94280.94;;;18.21
50206;BMP280;36098;48.390;10.856;2024-02-26T05:15:35;94287.22;;;18.20
50206;BMP280;36098;48.390;10.856;2024-02-26T05:18:00;94290.09;;;18.19
50206;BMP280;36098;48.390;10.856;2024-02-26T05:20:26;94287.47;;;18.19
50206;BMP280;36098;48.390;10.856;2024-02-26T05:22:51;94282.56;;;18.17
50206;BMP280;36098;48.390;10.856;2024-02-26T05:25:17;94285.44;;;18.16
50206;BMP280;36098;48.390;10.856;2024-02-26T05:27:43;94288.03;;;18.16
50206;BMP280;36098;48.390;10.856;2024-02-26T05:30:09;94290.66;;;18.16
50206;BMP280;36098;48.390;10.856;2024-02-26T05:32:35;94294.59;;;18.13
50206;BMP280;36098;48.390;10.856;2024-02-26T05:35:00;94290.44;;;18.12
50206;BMP280;36098;48.390;10.856;2024-02-26T05:37:26;94289.38;;;18.13
50206;BMP280;36098;48.390;10.856;2024-02-26T05:39:52;94292.78;;;18.14
50206;BMP280;36098;48.390;10.856;2024-02-26T05:42:18;94298.50;;;18.16
50206;BMP280;36098;48.390;10.856;2024-02-26T05:44:43;94288.03;;;18.16
50206;BMP280;36098;48.390;10.856;2024-02-26T05:47:08;94276.28;;;18.18
50206;BMP280;36098;48.390;10.856;2024-02-26T05:49:33;94279.66;;;18.19
50206;BMP280;36098;48.390;10.856;2024-02-26T05:51:59;94285.34;;;18.21
50206;BMP280;36098;48.390;10.856;2024-02-26T05:54:24;94287.97;;;18.21
50206;BMP280;36098;48.390;10.856;2024-02-26T05:56:49;94290.59;;;18.21
50206;BMP280;36098;48.390;10.856;2024-02-26T05:59:15;94298.34;;;18.26
50206;BMP280;36098;48.390;10.856;2024-02-26T06:01:41;94296.53;;;18.26
50206;BMP280;36098;48.390;10.856;2024-02-26T06:04:06;94299.41;;;18.25
50206;BMP280;36098;48.390;10.856;2024-02-26T06:06:32;94305.19;;;18.27
50206;BMP280;36098;48.390;10.856;2024-02-26T06:08:58;94303.56;;;18.26
50206;BMP280;36098;48.390;10.856;2024-02-26T06:11:23;94314.81;;;18.26
50206;BMP280;36098;48.390;10.856;2024-02-26T06:13:48;94324.25;;;18.27
50206;BMP280;36098;48.390;10.856;2024-02-26T06:16:14;94320.03;;;18.26
50206;BMP280;36098;48.390;10.856;2024-02-26T06:18:39;94334.94;;;18.26
50206;BMP280;36098;48.390;10.856;2024-02-26T06:21:04;94329.69;;;18.26
50206;BMP280;36098;48.390;10.856;2024-02-26T06:23:29;94320.31;;;18.25
50206;BMP280;36098;48.390;10.856;2024-02-26T06:25:55;94330.75;;;18.25
50206;BMP280;36098;48.390;10.856;2024-02-26T06:28:20;94356.88;;;18.25
50206;BMP280;36098;48.390;10.856;2024-02-26T06:30:46;94356.88;;;18.25
50206;BMP280;36098;48.390;10.856;2024-02-26T06:33:11;94363.16;;;18.24
50206;BMP280;36098;48.390;10.856;2024-02-26T06:35:37;94358.75;;;18.24
50206;BMP280;36098;48.390;10.856;2024-02-26T06:38:02;94347.50;;;18.24
50206;BMP280;36098;48.390;10.856;2024-02-26T06:40:29;94346.72;;;18.23
50206;BMP280;36098;48.390;10.856;2024-02-26T06:42:54;94347.50;;;18.24
50206;BMP280;36098;48.390;10.856;2024-02-26T06:45:21;94350.41;;;18.22
50206;BMP280;36098;48.390;10.856;2024-02-26T06:47:46;94360.06;;;18.22
50206;BMP280;36098;48.390;10.856;2024-02-26T06:50:12;94347.00;;;18.22
50206;BMP280;36098;48.390;10.856;2024-02-26T06:52:37;94350.66;;;18.21
50206;BMP280;36098;48.390;10.856;2024-02-26T06:55:03;94347.00;;;18.22
50206;BMP280;36098;48.390;10.856;2024-02-26T06:57:30;94350.66;;;18.21
50206;BMP280;36098;48.390;10.856;2024-02-26T06:59:55;94349.63;;;18.22
50206;BMP280;36098;48.390;10.856;2024-02-26T07:02:20;94342.06;;;18.20
50206;BMP280;36098;48.390;10.856;2024-02-26T07:04:46;94336.06;;;18.20
50206;BMP280;36098;48.390;10.856;2024-02-26T07:07:11;94326.41;;;18.20
50206;BMP280;36098;48.390;10.856;2024-02-26T07:09:36;94331.88;;;18.19
50206;BMP280;36098;48.390;10.856;2024-02-26T07:12:02;94348.63;;;18.18
50206;BMP280;36098;48.390;10.856;2024-02-26T07:14:27;94365.84;;;18.19
50206;BMP280;36098;48.390;10.856;2024-02-26T07:16:52;94378.41;;;18.17
50206;BMP280;36098;48.390;10.856;2024-02-26T07:19:18;94379.97;;;18.18
50206;BMP280;36098;48.390;10.856;2024-02-26T07:21:43;94377.63;;;18.16
50206;BMP280;36098;48.390;10.856;2024-02-26T07:24:08;94383.63;;;18.17
50206;BMP280;36098;48.390;10.856;2024-02-26T07:26:34;94392.53;;;18.16
50206;BMP280;36098;48.390;10.856;2024-02-26T07:28:59;94382.34;;;18.14
50206;BMP280;36098;48.390;10.856;2024-02-26T07:31:25;94384.97;;;18.14
50206;BMP280;36098;48.390;10.856;2024-02-26T07:33:50;94387.56;;;18.14
50206;BMP280;36098;48.390;10.856;2024-02-26T07:36:16;94379.22;;;18.12
50206;BMP280;36098;48.390;10.856;2024-02-26T07:38:41;94385.25;;;18.13
50206;BMP280;36098;48.390;10.856;2024-02-26T07:41:07;94374.81;;;18.13
50206;BMP280;36098;48.390;10.856;2024-02-26T07:43:32;94371.69;;;18.11
50206;BMP280;36098;48.390;10.856;2024-02-26T07:45:57;94370.63;;;18.12
50206;BMP280;36098;48.390;10.856;2024-02-26T07:48:23;94371.69;;;18.11
50206;BMP280;36098;48.390;10.856;2024-02-26T07:50:48;94386.56;;;18.10
50206;BMP280;36098;48.390;10.856;2024-02-26T07:53:13;94382.41;;;18.09
50206;BMP280;36098;48.390;10.856;2024-02-26T07:55:38;94385.00;;;18.09
50206;BMP280;36098;48.390;10.856;2024-02-26T07:58:04;94386.88;;;18.09
50206;BMP280;36098;48.390;10.856;2024-02-26T08:00:29;94393.66;;;18.10
50206;BMP280;36098;48.390;10.856;2024-02-26T08:02:55;94380.09;;;18.08
50206;BMP280;36098;48.390;10.856;2024-02-26T08:05:20;94389.47;;;18.09
50206;BMP280;36098;48.390;10.856;2024-02-26T08:07:45;94380.84;;;18.08
50206;BMP280;36098;48.390;10.856;2024-02-26T08:10:11;94383.75;;;18.07
50206;BMP280;36098;48.390;10.856;2024-02-26T08:12:36;94392.63;;;18.06
50206;BMP280;36098;48.390;10.856;2024-02-26T08:15:02;94389.25;;;18.05
50206;BMP280;36098;48.390;10.856;2024-02-26T08:17:27;94378.00;;;18.05
50206;BMP280;36098;48.390;10.856;2024-02-26T08:19:53;94378.00;;;18.05
50206;BMP280;36098;48.390;10.856;2024-02-26T08:22:18;94375.38;;;18.05
50206;BMP280;36098;48.390;10.856;2024-02-26T08:24:43;94373.84;;;18.04
50206;BMP280;36098;48.390;10.856;2024-02-26T08:27:09;94376.44;;;18.04
50206;BMP280;36098;48.390;10.856;2024-02-26T08:29:34;94365.25;;;18.03
50206;BMP280;36098;48.390;10.856;2024-02-26T08:32:00;94367.84;;;18.03
50206;BMP280;36098;48.390;10.856;2024-02-26T08:34:25;94367.84;;;18.03
50206;BMP280;36098;48.390;10.856;2024-02-26T08:36:51;94364.75;;;18.01
50206;BMP280;36098;48.390;10.856;2024-02-26T08:39:16;94366.28;;;18.02
50206;BMP280;36098;48.390;10.856;2024-02-26T08:41:43;94362.88;;;18.02
50206;BMP280;36098;48.390;10.856;2024-02-26T08:44:08;94360.56;;;18.00
50206;BMP280;36098;48.390;10.856;2024-02-26T08:46:34;94367.63;;;18.00
50206;BMP280;36098;48.390;10.856;2024-02-26T08:48:59;94390.06;;;18.01
50206;BMP280;36098;48.390;10.856;2024-02-26T08:51:25;94376.50;;;17.99
50206;BMP280;36098;48.390;10.856;2024-02-26T08:53:50;94380.16;;;17.98
50206;BMP280;36098;48.390;10.856;2024-02-26T08:56:16;94386.19;;;17.98
50206;BMP280;36098;48.390;10.856;2024-02-26T08:58:43;94397.41;;;17.99
50206;BMP280;36098;48.390;10.856;2024-02-26T09:01:08;94389.06;;;17.97
50206;BMP280;36098;48.390;10.856;2024-02-26T09:03:34;94395.06;;;17.97
50206;BMP280;36098;48.390;10.856;2024-02-26T09:05:59;94392.72;;;17.96
50206;BMP280;36098;48.390;10.856;2024-02-26T09:08:24;94392.72;;;17.96
50206;BMP280;36098;48.390;10.856;2024-02-26T09:10:49;94377.31;;;17.94
50206;BMP280;36098;48.390;10.856;2024-02-26T09:13:15;94372.09;;;17.94
50206;BMP280;36098;48.390;10.856;2024-02-26T09:15:40;94372.09;;;17.94
50206;BMP280;36098;48.390;10.856;2024-02-26T09:18:06;94373.94;;;17.94
50206;BMP280;36098;48.390;10.856;2024-02-26T09:20:31;94378.38;;;17.93
50206;BMP280;36098;48.390;10.856;2024-02-26T09:22:56;94369.78;;;17.93
50206;BMP280;36098;48.390;10.856;2024-02-26T09:25:21;94363.75;;;17.92
50206;BMP280;36098;48.390;10.856;2024-02-26T09:27:47;94367.44;;;17.91
50206;BMP280;36098;48.390;10.856;2024-02-26T09:30:13;94366.16;;;17.89
50206;BMP280;36098;48.390;10.856;2024-02-26T09:32:39;94360.66;;;17.90
50206;BMP280;36098;48.390;10.856;2024-02-26T09:35:07;94360.94;;;17.89
50206;BMP280;36098;48.390;10.856;2024-02-26T09:37:33;94359.91;;;17.90
50206;BMP280;36098;48.390;10.856;2024-02-26T09:39:59;94365.88;;;17.90
50206;BMP280;36098;48.390;10.856;2024-02-26T09:42:25;94371.91;;;17.91
50206;BMP280;36098;48.390;10.856;2024-02-26T09:44:54;94371.91;;;17.91
50206;BMP280;36098;48.390;10.856;2024-02-26T09:47:21;94377.63;;;17.93
50206;BMP280;36098;48.390;10.856;2024-02-26T09:49:48;94384.41;;;17.94
50206;BMP280;36098;48.390;10.856;2024-02-26T09:52:15;94385.94;;;17.95
50206;BMP280;36098;48.390;10.856;2024-02-26T09:54:41;94393.78;;;17.95
50206;BMP280;36098;48.390;10.856;2024-02-26T09:57:09;94392.72;;;17.96
50206;BMP280;36098;48.390;10.856;2024-02-26T09:59:41;94391.66;;;17.97
50206;BMP280;36098;48.390;10.856;2024-02-26T10:02:11;94400.56;;;17.96
50206;BMP280;36098;48.390;10.856;2024-02-26T10:04:37;94395.34;;;17.96
50206;BMP280;36098;48.390;10.856;2024-02-26T10:07:04;94393.50;;;17.96
50206;BMP280;36098;48.390;10.856;2024-02-26T10:09:31;94400.31;;;17.97
50206;BMP280;36098;48.390;10.856;2024-02-26T10:11:57;94392.47;;;17.97
50206;BMP280;36098;48.390;10.856;2024-02-26T10:14:22;94399.25;;;17.98
50206;BMP280;36098;48.390;10.856;2024-02-26T10:16:49;94395.84;;;17.98
50206;BMP280;36098;48.390;10.856;2024-02-26T10:19:26;94396.63;;;17.98
50206;BMP280;36098;48.390;10.856;2024-02-26T10:22:01;94401.06;;;17.98
50206;BMP280;36098;48.390;10.856;2024-02-26T10:24:28;94412.31;;;17.98
50206;BMP280;36098;48.390;10.856;2024-02-26T10:26:57;94407.84;;;17.99
50206;BMP280;36098;48.390;10.856;2024-02-26T10:29:25;94403.41;;;17.99
50206;BMP280;36098;48.390;10.856;2024-02-26T10:31:51;94418.28;;;17.99
50206;BMP280;36098;48.390;10.856;2024-02-26T10:34:17;94420.91;;;17.99
50206;BMP280;36098;48.390;10.856;2024-02-26T10:36:43;94421.69;;;17.99
50206;BMP280;36098;48.390;10.856;2024-02-26T10:39:12;94431.84;;;18.01
50206;BMP280;36098;48.390;10.856;2024-02-26T10:41:40;94432.91;;;18.00
50206;BMP280;36098;48.390;10.856;2024-02-26T10:44:05;94426.13;;;17.99
50206;BMP280;36098;48.390;10.856;2024-02-26T10:46:30;94426.13;;;17.99
50206;BMP280;36098;48.390;10.856;2024-02-26T10:48:56;94429.53;;;17.99
50206;BMP280;36098;48.390;10.856;2024-02-26T10:51:29;94431.34;;;17.99
50206;BMP280;36098;48.390;10.856;2024-02-26T10:53:56;94434.75;;;17.99
50206;BMP280;36098;48.390;10.856;2024-02-26T10:56:27;94435.50;;;18.00
50206;BMP280;36098;48.390;10.856;2024-02-26T10:58:53;94436.56;;;17.99
50206;BMP280;36098;48.390;10.856;2024-02-26T11:01:20;94441.03;;;17.98
50206;BMP280;36098;48.390;10.856;2024-02-26T11:03:48;94439.19;;;17.99
50206;BMP280;36098;48.390;10.856;2024-02-26T11:06:16;94445.97;;;18.00
50206;BMP280;36098;48.390;10.856;2024-02-26T11:08:43;94447.81;;;17.99
50206;BMP280;36098;48.390;10.856;2024-02-26T11:11:09;94448.56;;;18.00
50206;BMP280;36098;48.390;10.856;2024-02-26T11:13:35;94463.47;;;17.99
50206;BMP280;36098;48.390;10.856;2024-02-26T11:16:04;94463.47;;;17.99
50206;BMP280;36098;48.390;10.856;2024-02-26T11:18:30;94449.63;;;17.99
50206;BMP280;36098;48.390;10.856;2024-02-26T11:20:56;94458.47;;;18.03
50206;BMP280;36098;48.390;10.856;2024-02-26T11:23:23;94449.06;;;18.02
50206;BMP280;36098;48.390;10.856;2024-02-26T11:25:55;94452.19;;;18.04
50206;BMP280;36098;48.390;10.856;2024-02-26T11:28:21;94451.66;;;18.07
50206;BMP280;36098;48.390;10.856;2024-02-26T11:30:48;94458.44;;;18.08
50206;BMP280;36098;48.390;10.856;2024-02-26T11:33:15;94450.31;;;18.09
50206;BMP280;36098;48.390;10.856;2024-02-26T11:35:41;94447.44;;;18.11
50206;BMP280;36098;48.390;10.856;2024-02-26T11:38:06;94443.78;;;18.12
50206;BMP280;36098;48.390;10.856;2024-02-26T11:40:33;94435.94;;;18.12
50206;BMP280;36098;48.390;10.856;2024-02-26T11:43:03;94434.88;;;18.13
50206;BMP280;36098;48.390;10.856;2024-02-26T11:48:03;94434.31;;;18.16
50206;BMP280;36098;48.390;10.856;2024-02-26T11:50:55;94433.53;;;18.15
50206;BMP280;36098;48.390;10.856;2024-02-26T11:53:26;94430.41;;;18.18
50206;BMP280;36098;48.390;10.856;2024-02-26T11:58:40;94424.88;;;18.20
50206;BMP280;36098;48.390;10.856;2024-02-26T12:01:06;94418.31;;;18.22
50206;BMP280;36098;48.390;10.856;2024-02-26T12:03:31;94413.88;;;18.23
50206;BMP280;36098;48.390;10.856;2024-02-26T12:05:56;94414.09;;;18.26
50206;BMP280;36098;48.390;10.856;2024-02-26T12:08:22;94407.09;;;18.27
50206;BMP280;36098;48.390;10.856;2024-02-26T12:10:48;94408.34;;;18.29
50206;BMP280;36098;48.390;10.856;2024-02-26T12:13:17;94410.69;;;18.31
50206;BMP280;36098;48.390;10.856;2024-02-26T12:15:54;94415.91;;;18.31
50206;BMP280;36098;48.390;10.856;2024-02-26T12:18:20;94410.69;;;18.31
50206;BMP280;36098;48.390;10.856;2024-02-26T12:20:46;94409.13;;;18.30
50206;BMP280;36098;48.390;10.856;2024-02-26T12:23:16;94400.25;;;18.31
50206;BMP280;36098;48.390;10.856;2024-02-26T12:25:43;94401.81;;;18.32
50206;BMP280;36098;48.390;10.856;2024-02-26T12:28:09;94414.88;;;18.32
50206;BMP280;36098;48.390;10.856;2024-02-26T12:30:34;94423.47;;;18.32
50206;BMP280;36098;48.390;10.856;2024-02-26T12:33:00;94419.03;;;18.33
50206;BMP280;36098;48.390;10.856;2024-02-26T12:35:29;94434.72;;;18.33
50206;BMP280;36098;48.390;10.856;2024-02-26T12:37:58;94436.25;;;18.34
50206;BMP280;36098;48.390;10.856;2024-02-26T12:40:23;94441.50;;;18.34
50206;BMP280;36098;48.390;10.856;2024-02-26T12:42:49;94447.47;;;18.34
50206;BMP280;36098;48.390;10.856;2024-02-26T12:45:15;94450.88;;;18.35
50206;BMP280;36098;48.390;10.856;2024-02-26T12:47:45;94451.94;;;18.34
50206;BMP280;36098;48.390;10.856;2024-02-26T12:50:17;94462.09;;;18.35
50206;BMP280;36098;48.390;10.856;2024-02-26T12:52:46;94459.50;;;18.35
50206;BMP280;36098;48.390;10.856;2024-02-26T12:55:20;94458.72;;;18.35
50206;BMP280;36098;48.390;10.856;2024-02-26T12:57:46;94461.06;;;18.36
50206;BMP280;36098;48.390;10.856;2024-02-26T13:00:24;94452.44;;;18.36
50206;BMP280;36098;48.390;10.856;2024-02-26T13:02:50;94453.22;;;18.36
50206;BMP280;36098;48.390;10.856;2024-02-26T13:05:17;94452.44;;;18.36
50206;BMP280;36098;48.390;10.856;2024-02-26T13:07:44;94448.00;;;18.36
50206;BMP280;36098;48.390;10.856;2024-02-26T13:10:12;94450.63;;;18.36
50206;BMP280;36098;48.390;10.856;2024-02-26T13:12:43;94454.78;;;18.37
50206;BMP280;36098;48.390;10.856;2024-02-26T13:15:14;94455.56;;;18.38
50206;BMP280;36098;48.390;10.856;2024-02-26T13:17:39;94450.31;;;18.38
50206;BMP280;36098;48.390;10.856;2024-02-26T13:20:05;94458.66;;;18.40
50206;BMP280;36098;48.390;10.856;2024-02-26T13:22:32;94453.72;;;18.38
50206;BMP280;36098;48.390;10.856;2024-02-26T13:24:59;94456.06;;;18.40
50206;BMP280;36098;48.390;10.856;2024-02-26T13:27:25;94461.28;;;18.40
50206;BMP280;36098;48.390;10.856;2024-02-26T13:30:04;94461.28;;;18.40
50206;BMP280;36098;48.390;10.856;2024-02-26T13:32:32;94467.31;;;18.40
50206;BMP280;36098;48.390;10.856;2024-02-26T13:35:11;94468.06;;;18.41
50206;BMP280;36098;48.390;10.856;2024-02-26T13:37:38;94467.84;;;18.37
50206;BMP280;36098;48.390;10.856;2024-02-26T13:40:08;94468.63;;;18.38
50206;BMP280;36098;48.390;10.856;2024-02-26T13:42:34;94472.53;;;18.40
50206;BMP280;36098;48.390;10.856;2024-02-26T13:45:00;94471.72;;;18.40
50206;BMP280;36098;48.390;10.856;2024-02-26T13:47:26;94471.72;;;18.40
50206;BMP280;36098;48.390;10.856;2024-02-26T13:49:52;94482.19;;;18.40
50206;BMP280;36098;48.390;10.856;2024-02-26T13:52:17;94483.75;;;18.41
50206;BMP280;36098;48.390;10.856;2024-02-26T13:54:58;94487.72;;;18.38
50206;BMP280;36098;48.390;10.856;2024-02-26T13:57:26;94494.00;;;18.37